Disclaimer

Please do not use the information listed here in-flight or in-navigation, as they are not provided to us by the airports but are provided by volunteers, so they might be outdated.

Search


Regions


Airport information page

Radio informations:
Tower (TWR) - 118.3 MHz
ACC - 119.1 MHz
A/G - 6673 MHz

Airport informations:
Latitude: 12° 32' 00.76" N
Longitude: 007° 56' 59.80" W
Elevation: 1247 feet - 380 meters
Operating hours: 24 hour operations
Operating agency: Military-civil joint use airport
Timezone: UTC 0
Fuel: Jet A1+, Jet A1 with icing inhibitor.

100/130 MIL Spec, low lead, aviation gasoline (BLUE)

Unknown fuel type or whether there is any fuel.

Runway information:
06/24 - 8879 x 148 feet< - >2706 x 45 meters

Recent METARs:
GABS 160930Z 04012KT CAVOK 26/M02 Q1020 NOSIG
GABS 161000Z 06017KT CAVOK 26/M04 Q1020 NOSIG
GABS 161030Z 06014KT CAVOK 27/M02 Q1020 NOSIG

Airport on the map: